sensor_id;sensor_type;location;lat;lon;timestamp;P1;durP1;ratioP1;P2;durP2;ratioP2
12703;SDS011;6416;52.182;7.650;2023-03-25T00:00:05;1.53;;;1.20;;
12703;SDS011;6416;52.182;7.650;2023-03-25T00:02:32;2.80;;;1.43;;
12703;SDS011;6416;52.182;7.650;2023-03-25T00:04:58;2.40;;;1.10;;
12703;SDS011;6416;52.182;7.650;2023-03-25T00:07:23;1.00;;;0.80;;
12703;SDS011;6416;52.182;7.650;2023-03-25T00:09:49;1.37;;;0.70;;
12703;SDS011;6416;52.182;7.650;2023-03-25T00:12:14;1.23;;;1.13;;
12703;SDS011;6416;52.182;7.650;2023-03-25T00:14:40;1.00;;;0.90;;
12703;SDS011;6416;52.182;7.650;2023-03-25T00:17:06;1.17;;;0.90;;
12703;SDS011;6416;52.182;7.650;2023-03-25T00:19:32;1.27;;;0.80;;
12703;SDS011;6416;52.182;7.650;2023-03-25T00:21:58;1.47;;;0.80;;
12703;SDS011;6416;52.182;7.650;2023-03-25T00:24:24;1.93;;;0.97;;
12703;SDS011;6416;52.182;7.650;2023-03-25T00:26:49;1.70;;;1.27;;
12703;SDS011;6416;52.182;7.650;2023-03-25T00:29:15;1.87;;;0.90;;
12703;SDS011;6416;52.182;7.650;2023-03-25T00:31:41;0.80;;;0.80;;
12703;SDS011;6416;52.182;7.650;2023-03-25T00:34:07;2.20;;;1.03;;
12703;SDS011;6416;52.182;7.650;2023-03-25T00:36:33;2.77;;;1.00;;
12703;SDS011;6416;52.182;7.650;2023-03-25T00:38:59;1.97;;;1.10;;
12703;SDS011;6416;52.182;7.650;2023-03-25T00:41:24;2.53;;;1.23;;
12703;SDS011;6416;52.182;7.650;2023-03-25T00:43:51;1.60;;;1.03;;
12703;SDS011;6416;52.182;7.650;2023-03-25T00:46:18;1.63;;;1.20;;
12703;SDS011;6416;52.182;7.650;2023-03-25T00:48:44;3.83;;;1.43;;
12703;SDS011;6416;52.182;7.650;2023-03-25T00:51:09;3.80;;;1.27;;
12703;SDS011;6416;52.182;7.650;2023-03-25T00:53:35;1.77;;;1.10;;
12703;SDS011;6416;52.182;7.650;2023-03-25T00:56:02;2.87;;;1.50;;
12703;SDS011;6416;52.182;7.650;2023-03-25T00:58:28;2.63;;;1.23;;
12703;SDS011;6416;52.182;7.650;2023-03-25T01:00:54;3.13;;;1.23;;
12703;SDS011;6416;52.182;7.650;2023-03-25T01:03:20;3.40;;;1.60;;
12703;SDS011;6416;52.182;7.650;2023-03-25T01:05:47;3.23;;;1.50;;
12703;SDS011;6416;52.182;7.650;2023-03-25T01:08:12;2.43;;;1.60;;
12703;SDS011;6416;52.182;7.650;2023-03-25T01:10:37;2.33;;;1.43;;
12703;SDS011;6416;52.182;7.650;2023-03-25T01:13:03;2.67;;;1.50;;
12703;SDS011;6416;52.182;7.650;2023-03-25T01:15:28;2.83;;;1.40;;
12703;SDS011;6416;52.182;7.650;2023-03-25T01:17:54;2.67;;;1.40;;
12703;SDS011;6416;52.182;7.650;2023-03-25T01:20:19;2.00;;;1.27;;
12703;SDS011;6416;52.182;7.650;2023-03-25T01:22:45;2.23;;;1.23;;
12703;SDS011;6416;52.182;7.650;2023-03-25T01:25:10;2.50;;;1.37;;
12703;SDS011;6416;52.182;7.650;2023-03-25T01:27:36;3.63;;;1.40;;
12703;SDS011;6416;52.182;7.650;2023-03-25T01:30:01;1.83;;;1.00;;
12703;SDS011;6416;52.182;7.650;2023-03-25T01:32:27;2.03;;;1.20;;
12703;SDS011;6416;52.182;7.650;2023-03-25T01:34:53;2.73;;;1.30;;
12703;SDS011;6416;52.182;7.650;2023-03-25T01:37:18;2.63;;;1.40;;
12703;SDS011;6416;52.182;7.650;2023-03-25T01:39:47;3.67;;;1.50;;
12703;SDS011;6416;52.182;7.650;2023-03-25T01:42:12;2.73;;;1.60;;
12703;SDS011;6416;52.182;7.650;2023-03-25T01:47:03;3.50;;;1.37;;
12703;SDS011;6416;52.182;7.650;2023-03-25T01:49:31;2.97;;;1.30;;
12703;SDS011;6416;52.182;7.650;2023-03-25T01:52:03;3.07;;;1.47;;
12703;SDS011;6416;52.182;7.650;2023-03-25T01:54:32;2.93;;;1.50;;
12703;SDS011;6416;52.182;7.650;2023-03-25T01:56:58;3.03;;;1.30;;
12703;SDS011;6416;52.182;7.650;2023-03-25T01:59:25;2.37;;;1.70;;
12703;SDS011;6416;52.182;7.650;2023-03-25T02:01:52;4.00;;;1.40;;
12703;SDS011;6416;52.182;7.650;2023-03-25T02:07:09;3.23;;;1.13;;
12703;SDS011;6416;52.182;7.650;2023-03-25T02:09:36;3.07;;;1.33;;
12703;SDS011;6416;52.182;7.650;2023-03-25T02:12:02;3.87;;;1.73;;
12703;SDS011;6416;52.182;7.650;2023-03-25T02:14:29;3.73;;;1.47;;
12703;SDS011;6416;52.182;7.650;2023-03-25T02:28:32;4.97;;;1.60;;
12703;SDS011;6416;52.182;7.650;2023-03-25T02:34:10;3.77;;;1.50;;
12703;SDS011;6416;52.182;7.650;2023-03-25T02:39:48;3.17;;;1.40;;
12703;SDS011;6416;52.182;7.650;2023-03-25T02:42:21;3.07;;;1.70;;
12703;SDS011;6416;52.182;7.650;2023-03-25T02:45:09;3.00;;;1.37;;
12703;SDS011;6416;52.182;7.650;2023-03-25T02:47:44;3.10;;;1.30;;
12703;SDS011;6416;52.182;7.650;2023-03-25T02:50:13;2.53;;;1.33;;
12703;SDS011;6416;52.182;7.650;2023-03-25T02:52:48;3.13;;;1.50;;
12703;SDS011;6416;52.182;7.650;2023-03-25T02:55:18;2.53;;;1.30;;
12703;SDS011;6416;52.182;7.650;2023-03-25T02:57:46;2.43;;;1.43;;
12703;SDS011;6416;52.182;7.650;2023-03-25T03:00:15;2.70;;;1.47;;
12703;SDS011;6416;52.182;7.650;2023-03-25T03:02:49;2.63;;;1.40;;
12703;SDS011;6416;52.182;7.650;2023-03-25T03:07:58;3.03;;;1.20;;
12703;SDS011;6416;52.182;7.650;2023-03-25T03:10:36;3.63;;;1.50;;
12703;SDS011;6416;52.182;7.650;2023-03-25T03:15:45;2.83;;;1.27;;
12703;SDS011;6416;52.182;7.650;2023-03-25T03:18:16;4.60;;;1.60;;
12703;SDS011;6416;52.182;7.650;2023-03-25T03:20:53;4.07;;;1.30;;
12703;SDS011;6416;52.182;7.650;2023-03-25T03:23:27;3.57;;;1.33;;
12703;SDS011;6416;52.182;7.650;2023-03-25T03:26:03;1.83;;;1.10;;
12703;SDS011;6416;52.182;7.650;2023-03-25T03:28:39;4.00;;;1.37;;
12703;SDS011;6416;52.182;7.650;2023-03-25T03:31:16;5.13;;;1.43;;
12703;SDS011;6416;52.182;7.650;2023-03-25T03:36:21;4.57;;;1.30;;
12703;SDS011;6416;52.182;7.650;2023-03-25T03:39:06;3.37;;;1.50;;
12703;SDS011;6416;52.182;7.650;2023-03-25T03:41:42;2.80;;;1.33;;
12703;SDS011;6416;52.182;7.650;2023-03-25T03:44:18;3.10;;;1.57;;
12703;SDS011;6416;52.182;7.650;2023-03-25T03:46:51;3.00;;;1.70;;
12703;SDS011;6416;52.182;7.650;2023-03-25T03:49:18;3.33;;;1.20;;
12703;SDS011;6416;52.182;7.650;2023-03-25T03:51:52;2.37;;;1.47;;
12703;SDS011;6416;52.182;7.650;2023-03-25T03:54:31;3.13;;;1.43;;
12703;SDS011;6416;52.182;7.650;2023-03-25T03:57:07;2.47;;;1.40;;
12703;SDS011;6416;52.182;7.650;2023-03-25T03:59:41;3.00;;;1.67;;
12703;SDS011;6416;52.182;7.650;2023-03-25T04:02:29;2.33;;;1.60;;
12703;SDS011;6416;52.182;7.650;2023-03-25T04:05:10;3.03;;;1.50;;
12703;SDS011;6416;52.182;7.650;2023-03-25T04:07:42;2.93;;;1.63;;
12703;SDS011;6416;52.182;7.650;2023-03-25T04:10:10;2.73;;;1.63;;
12703;SDS011;6416;52.182;7.650;2023-03-25T04:12:46;2.43;;;1.27;;
12703;SDS011;6416;52.182;7.650;2023-03-25T04:15:16;3.43;;;1.40;;
12703;SDS011;6416;52.182;7.650;2023-03-25T04:17:42;1.80;;;1.50;;
12703;SDS011;6416;52.182;7.650;2023-03-25T04:20:09;4.03;;;1.63;;
12703;SDS011;6416;52.182;7.650;2023-03-25T04:22:38;4.77;;;1.83;;
12703;SDS011;6416;52.182;7.650;2023-03-25T04:25:05;2.47;;;1.70;;
12703;SDS011;6416;52.182;7.650;2023-03-25T04:27:30;2.83;;;1.40;;
12703;SDS011;6416;52.182;7.650;2023-03-25T04:29:56;3.47;;;2.00;;
12703;SDS011;6416;52.182;7.650;2023-03-25T04:32:22;3.33;;;1.40;;
12703;SDS011;6416;52.182;7.650;2023-03-25T04:34:47;2.33;;;1.47;;
12703;SDS011;6416;52.182;7.650;2023-03-25T04:37:13;2.03;;;1.30;;
12703;SDS011;6416;52.182;7.650;2023-03-25T04:39:39;6.87;;;1.60;;
12703;SDS011;6416;52.182;7.650;2023-03-25T04:42:04;3.47;;;1.50;;
12703;SDS011;6416;52.182;7.650;2023-03-25T04:44:30;5.60;;;1.87;;
12703;SDS011;6416;52.182;7.650;2023-03-25T04:46:56;3.37;;;1.50;;
12703;SDS011;6416;52.182;7.650;2023-03-25T04:49:22;2.00;;;1.50;;
12703;SDS011;6416;52.182;7.650;2023-03-25T04:51:48;1.73;;;1.30;;
12703;SDS011;6416;52.182;7.650;2023-03-25T04:54:14;3.47;;;1.70;;
12703;SDS011;6416;52.182;7.650;2023-03-25T04:56:40;2.60;;;1.60;;
12703;SDS011;6416;52.182;7.650;2023-03-25T04:59:06;1.77;;;1.40;;
12703;SDS011;6416;52.182;7.650;2023-03-25T05:01:31;2.70;;;1.53;;
12703;SDS011;6416;52.182;7.650;2023-03-25T05:04:00;3.13;;;1.63;;
12703;SDS011;6416;52.182;7.650;2023-03-25T05:06:27;3.40;;;1.60;;
12703;SDS011;6416;52.182;7.650;2023-03-25T05:08:53;2.70;;;1.80;;
12703;SDS011;6416;52.182;7.650;2023-03-25T05:11:18;3.07;;;1.50;;
12703;SDS011;6416;52.182;7.650;2023-03-25T05:13:44;2.77;;;1.47;;
12703;SDS011;6416;52.182;7.650;2023-03-25T05:16:09;4.50;;;2.03;;
12703;SDS011;6416;52.182;7.650;2023-03-25T05:18:35;2.47;;;1.60;;
12703;SDS011;6416;52.182;7.650;2023-03-25T05:21:00;3.03;;;1.63;;
12703;SDS011;6416;52.182;7.650;2023-03-25T05:23:26;2.93;;;1.47;;
12703;SDS011;6416;52.182;7.650;2023-03-25T05:25:51;2.70;;;1.37;;
12703;SDS011;6416;52.182;7.650;2023-03-25T05:28:17;3.13;;;1.80;;
12703;SDS011;6416;52.182;7.650;2023-03-25T05:30:43;2.90;;;1.40;;
12703;SDS011;6416;52.182;7.650;2023-03-25T05:33:11;3.30;;;1.73;;
12703;SDS011;6416;52.182;7.650;2023-03-25T05:35:38;2.50;;;1.40;;
12703;SDS011;6416;52.182;7.650;2023-03-25T05:38:04;2.60;;;1.60;;
12703;SDS011;6416;52.182;7.650;2023-03-25T05:40:30;3.37;;;1.60;;
12703;SDS011;6416;52.182;7.650;2023-03-25T05:42:56;7.77;;;2.03;;
12703;SDS011;6416;52.182;7.650;2023-03-25T05:45:21;3.80;;;1.50;;
12703;SDS011;6416;52.182;7.650;2023-03-25T05:47:47;5.17;;;1.57;;
12703;SDS011;6416;52.182;7.650;2023-03-25T05:50:12;3.17;;;1.50;;
12703;SDS011;6416;52.182;7.650;2023-03-25T05:52:38;3.23;;;1.23;;
12703;SDS011;6416;52.182;7.650;2023-03-25T05:55:04;1.93;;;1.10;;
12703;SDS011;6416;52.182;7.650;2023-03-25T05:57:30;2.53;;;1.40;;
12703;SDS011;6416;52.182;7.650;2023-03-25T05:59:55;3.33;;;1.43;;
12703;SDS011;6416;52.182;7.650;2023-03-25T06:02:21;4.73;;;1.87;;
12703;SDS011;6416;52.182;7.650;2023-03-25T06:04:47;3.80;;;1.40;;
12703;SDS011;6416;52.182;7.650;2023-03-25T06:07:13;3.67;;;1.60;;
12703;SDS011;6416;52.182;7.650;2023-03-25T06:09:41;2.63;;;1.70;;
12703;SDS011;6416;52.182;7.650;2023-03-25T06:12:07;3.87;;;1.40;;
12703;SDS011;6416;52.182;7.650;2023-03-25T06:14:32;2.97;;;1.50;;
12703;SDS011;6416;52.182;7.650;2023-03-25T06:16:58;3.07;;;1.60;;
12703;SDS011;6416;52.182;7.650;2023-03-25T06:19:23;2.90;;;1.43;;
12703;SDS011;6416;52.182;7.650;2023-03-25T06:21:49;2.27;;;1.50;;
12703;SDS011;6416;52.182;7.650;2023-03-25T06:24:17;4.90;;;1.77;;
12703;SDS011;6416;52.182;7.650;2023-03-25T06:26:43;2.33;;;1.47;;
12703;SDS011;6416;52.182;7.650;2023-03-25T06:29:08;3.07;;;1.60;;
12703;SDS011;6416;52.182;7.650;2023-03-25T06:31:34;3.57;;;1.47;;
12703;SDS011;6416;52.182;7.650;2023-03-25T06:33:59;3.33;;;1.50;;
12703;SDS011;6416;52.182;7.650;2023-03-25T06:36:25;4.47;;;1.60;;
12703;SDS011;6416;52.182;7.650;2023-03-25T06:38:50;2.27;;;1.33;;
12703;SDS011;6416;52.182;7.650;2023-03-25T06:41:16;2.33;;;1.57;;
12703;SDS011;6416;52.182;7.650;2023-03-25T06:43:42;2.90;;;1.70;;
12703;SDS011;6416;52.182;7.650;2023-03-25T06:46:08;3.80;;;1.50;;
12703;SDS011;6416;52.182;7.650;2023-03-25T06:48:33;2.80;;;1.50;;
12703;SDS011;6416;52.182;7.650;2023-03-25T06:50:59;3.90;;;1.63;;
12703;SDS011;6416;52.182;7.650;2023-03-25T06:53:24;2.47;;;1.70;;
12703;SDS011;6416;52.182;7.650;2023-03-25T06:55:50;3.73;;;1.60;;
12703;SDS011;6416;52.182;7.650;2023-03-25T06:58:15;3.20;;;1.77;;
12703;SDS011;6416;52.182;7.650;2023-03-25T07:00:41;3.10;;;1.27;;
12703;SDS011;6416;52.182;7.650;2023-03-25T07:03:06;3.80;;;1.80;;
12703;SDS011;6416;52.182;7.650;2023-03-25T07:05:32;2.43;;;1.40;;
12703;SDS011;6416;52.182;7.650;2023-03-25T07:07:57;2.43;;;1.40;;
12703;SDS011;6416;52.182;7.650;2023-03-25T07:10:23;3.17;;;1.30;;
12703;SDS011;6416;52.182;7.650;2023-03-25T07:12:48;2.97;;;1.20;;
12703;SDS011;6416;52.182;7.650;2023-03-25T07:15:14;3.13;;;1.30;;
12703;SDS011;6416;52.182;7.650;2023-03-25T07:17:39;3.30;;;1.37;;
12703;SDS011;6416;52.182;7.650;2023-03-25T07:20:05;3.97;;;1.40;;
12703;SDS011;6416;52.182;7.650;2023-03-25T07:22:31;2.10;;;1.13;;
12703;SDS011;6416;52.182;7.650;2023-03-25T07:24:57;3.87;;;1.50;;
12703;SDS011;6416;52.182;7.650;2023-03-25T07:27:22;3.07;;;1.33;;
12703;SDS011;6416;52.182;7.650;2023-03-25T07:29:48;5.20;;;1.50;;
12703;SDS011;6416;52.182;7.650;2023-03-25T07:32:14;1.60;;;1.10;;
12703;SDS011;6416;52.182;7.650;2023-03-25T07:34:39;2.90;;;1.10;;
12703;SDS011;6416;52.182;7.650;2023-03-25T07:37:05;2.63;;;1.10;;
12703;SDS011;6416;52.182;7.650;2023-03-25T07:39:30;3.83;;;1.67;;
12703;SDS011;6416;52.182;7.650;2023-03-25T07:41:56;2.93;;;1.50;;
12703;SDS011;6416;52.182;7.650;2023-03-25T07:44:21;2.87;;;1.40;;
12703;SDS011;6416;52.182;7.650;2023-03-25T07:46:47;3.50;;;1.40;;
12703;SDS011;6416;52.182;7.650;2023-03-25T07:49:13;3.37;;;1.40;;
12703;SDS011;6416;52.182;7.650;2023-03-25T07:51:39;4.50;;;1.70;;
12703;SDS011;6416;52.182;7.650;2023-03-25T07:54:04;3.50;;;1.60;;
12703;SDS011;6416;52.182;7.650;2023-03-25T07:56:30;3.63;;;1.77;;
12703;SDS011;6416;52.182;7.650;2023-03-25T07:58:55;3.87;;;1.67;;
12703;SDS011;6416;52.182;7.650;2023-03-25T08:01:21;4.33;;;1.50;;
12703;SDS011;6416;52.182;7.650;2023-03-25T08:03:46;4.30;;;1.70;;
12703;SDS011;6416;52.182;7.650;2023-03-25T08:06:12;3.87;;;1.43;;
12703;SDS011;6416;52.182;7.650;2023-03-25T08:08:37;4.53;;;1.80;;
12703;SDS011;6416;52.182;7.650;2023-03-25T08:11:03;4.63;;;1.70;;
12703;SDS011;6416;52.182;7.650;2023-03-25T08:13:29;4.60;;;1.70;;
12703;SDS011;6416;52.182;7.650;2023-03-25T08:15:55;3.20;;;1.70;;
12703;SDS011;6416;52.182;7.650;2023-03-25T08:18:20;5.93;;;2.00;;
12703;SDS011;6416;52.182;7.650;2023-03-25T08:20:47;5.47;;;1.90;;
12703;SDS011;6416;52.182;7.650;2023-03-25T08:23:13;3.63;;;2.10;;
12703;SDS011;6416;52.182;7.650;2023-03-25T08:25:39;5.73;;;1.90;;
12703;SDS011;6416;52.182;7.650;2023-03-25T08:28:04;3.80;;;1.67;;
12703;SDS011;6416;52.182;7.650;2023-03-25T08:30:30;4.63;;;1.97;;
12703;SDS011;6416;52.182;7.650;2023-03-25T08:32:56;3.77;;;2.03;;
12703;SDS011;6416;52.182;7.650;2023-03-25T08:35:22;5.43;;;1.80;;
12703;SDS011;6416;52.182;7.650;2023-03-25T08:37:48;3.53;;;1.80;;
12703;SDS011;6416;52.182;7.650;2023-03-25T08:40:13;4.03;;;1.90;;
12703;SDS011;6416;52.182;7.650;2023-03-25T08:42:39;4.07;;;1.70;;
12703;SDS011;6416;52.182;7.650;2023-03-25T08:45:05;6.53;;;2.00;;
12703;SDS011;6416;52.182;7.650;2023-03-25T08:47:31;6.10;;;2.47;;
12703;SDS011;6416;52.182;7.650;2023-03-25T08:49:56;6.40;;;1.90;;
12703;SDS011;6416;52.182;7.650;2023-03-25T08:52:25;5.47;;;2.10;;
12703;SDS011;6416;52.182;7.650;2023-03-25T08:54:50;4.60;;;1.90;;
12703;SDS011;6416;52.182;7.650;2023-03-25T08:57:16;9.00;;;2.00;;
12703;SDS011;6416;52.182;7.650;2023-03-25T08:59:43;5.80;;;2.20;;
12703;SDS011;6416;52.182;7.650;2023-03-25T09:02:09;5.57;;;1.90;;
12703;SDS011;6416;52.182;7.650;2023-03-25T09:04:36;4.70;;;2.27;;
12703;SDS011;6416;52.182;7.650;2023-03-25T09:07:01;4.63;;;1.67;;
12703;SDS011;6416;52.182;7.650;2023-03-25T09:09:27;5.37;;;1.73;;
12703;SDS011;6416;52.182;7.650;2023-03-25T09:11:52;3.80;;;1.70;;
12703;SDS011;6416;52.182;7.650;2023-03-25T09:14:18;5.90;;;2.20;;
12703;SDS011;6416;52.182;7.650;2023-03-25T09:16:43;3.43;;;1.57;;
12703;SDS011;6416;52.182;7.650;2023-03-25T09:19:09;4.73;;;2.17;;
12703;SDS011;6416;52.182;7.650;2023-03-25T09:21:34;4.60;;;2.07;;
12703;SDS011;6416;52.182;7.650;2023-03-25T09:23:59;3.53;;;1.70;;
12703;SDS011;6416;52.182;7.650;2023-03-25T09:26:25;4.77;;;1.60;;
12703;SDS011;6416;52.182;7.650;2023-03-25T09:28:51;4.23;;;1.60;;
12703;SDS011;6416;52.182;7.650;2023-03-25T09:31:17;3.53;;;1.60;;
12703;SDS011;6416;52.182;7.650;2023-03-25T09:33:42;5.83;;;1.80;;
12703;SDS011;6416;52.182;7.650;2023-03-25T09:36:08;4.73;;;1.70;;
12703;SDS011;6416;52.182;7.650;2023-03-25T09:38:33;5.50;;;1.70;;
12703;SDS011;6416;52.182;7.650;2023-03-25T09:41:00;6.57;;;1.80;;
12703;SDS011;6416;52.182;7.650;2023-03-25T09:44:01;8.30;;;2.27;;
12703;SDS011;6416;52.182;7.650;2023-03-25T09:46:37;3.07;;;1.40;;
12703;SDS011;6416;52.182;7.650;2023-03-25T09:49:04;3.80;;;1.63;;
12703;SDS011;6416;52.182;7.650;2023-03-25T09:51:45;2.57;;;1.50;;
12703;SDS011;6416;52.182;7.650;2023-03-25T09:56:56;4.27;;;1.87;;
12703;SDS011;6416;52.182;7.650;2023-03-25T10:02:01;5.17;;;2.20;;
12703;SDS011;6416;52.182;7.650;2023-03-25T10:10:21;2.20;;;1.63;;
12703;SDS011;6416;52.182;7.650;2023-03-25T10:12:54;3.77;;;1.77;;
12703;SDS011;6416;52.182;7.650;2023-03-25T10:15:39;3.43;;;1.87;;
12703;SDS011;6416;52.182;7.650;2023-03-25T10:20:50;2.60;;;1.50;;
12703;SDS011;6416;52.182;7.650;2023-03-25T10:23:41;3.97;;;1.70;;
12703;SDS011;6416;52.182;7.650;2023-03-25T10:26:29;4.17;;;2.23;;
12703;SDS011;6416;52.182;7.650;2023-03-25T10:29:05;4.97;;;1.93;;
12703;SDS011;6416;52.182;7.650;2023-03-25T10:31:38;4.67;;;1.77;;
12703;SDS011;6416;52.182;7.650;2023-03-25T10:34:13;4.38;;;2.28;;
12703;SDS011;6416;52.182;7.650;2023-03-25T10:36:54;4.85;;;1.98;;
12703;SDS011;6416;52.182;7.650;2023-03-25T10:39:21;4.95;;;2.60;;
12703;SDS011;6416;52.182;7.650;2023-03-25T10:41:55;5.70;;;2.60;;
12703;SDS011;6416;52.182;7.650;2023-03-25T10:44:24;5.63;;;2.05;;
12703;SDS011;6416;52.182;7.650;2023-03-25T10:46:53;3.88;;;1.73;;
12703;SDS011;6416;52.182;7.650;2023-03-25T10:49:28;4.90;;;1.77;;
12703;SDS011;6416;52.182;7.650;2023-03-25T10:51:55;3.60;;;1.58;;
12703;SDS011;6416;52.182;7.650;2023-03-25T10:54:23;6.25;;;2.10;;
12703;SDS011;6416;52.182;7.650;2023-03-25T10:56:52;4.90;;;2.10;;
12703;SDS011;6416;52.182;7.650;2023-03-25T10:59:26;3.15;;;1.80;;
12703;SDS011;6416;52.182;7.650;2023-03-25T11:01:56;5.80;;;1.70;;
12703;SDS011;6416;52.182;7.650;2023-03-25T11:04:26;3.75;;;1.77;;
12703;SDS011;6416;52.182;7.650;2023-03-25T11:06:58;4.45;;;1.80;;
12703;SDS011;6416;52.182;7.650;2023-03-25T11:09:24;8.07;;;3.50;;
12703;SDS011;6416;52.182;7.650;2023-03-25T11:11:52;4.35;;;2.20;;
12703;SDS011;6416;52.182;7.650;2023-03-25T11:14:24;3.50;;;2.10;;
12703;SDS011;6416;52.182;7.650;2023-03-25T11:16:55;4.23;;;1.87;;
12703;SDS011;6416;52.182;7.650;2023-03-25T11:19:28;5.68;;;1.83;;
12703;SDS011;6416;52.182;7.650;2023-03-25T11:22:01;4.70;;;1.70;;
12703;SDS011;6416;52.182;7.650;2023-03-25T11:24:33;4.73;;;1.80;;
12703;SDS011;6416;52.182;7.650;2023-03-25T11:27:03;5.37;;;1.90;;
12703;SDS011;6416;52.182;7.650;2023-03-25T11:29:32;5.23;;;1.70;;
12703;SDS011;6416;52.182;7.650;2023-03-25T11:32:06;4.57;;;2.00;;
12703;SDS011;6416;52.182;7.650;2023-03-25T11:34:37;4.80;;;1.90;;
12703;SDS011;6416;52.182;7.650;2023-03-25T11:37:06;6.10;;;1.73;;
12703;SDS011;6416;52.182;7.650;2023-03-25T11:39:49;6.83;;;2.10;;
12703;SDS011;6416;52.182;7.650;2023-03-25T11:44:51;5.20;;;1.77;;
12703;SDS011;6416;52.182;7.650;2023-03-25T11:47:20;3.47;;;1.60;;
12703;SDS011;6416;52.182;7.650;2023-03-25T11:49:49;3.57;;;1.40;;
12703;SDS011;6416;52.182;7.650;2023-03-25T11:52:19;4.27;;;1.70;;
12703;SDS011;6416;52.182;7.650;2023-03-25T11:54:48;3.80;;;1.67;;
12703;SDS011;6416;52.182;7.650;2023-03-25T11:57:18;2.90;;;1.50;;
12703;SDS011;6416;52.182;7.650;2023-03-25T11:59:48;4.37;;;1.90;;
12703;SDS011;6416;52.182;7.650;2023-03-25T12:05:11;4.90;;;1.77;;
12703;SDS011;6416;52.182;7.650;2023-03-25T12:07:42;3.47;;;1.77;;
12703;SDS011;6416;52.182;7.650;2023-03-25T12:10:35;3.38;;;2.10;;
12703;SDS011;6416;52.182;7.650;2023-03-25T12:26:49;2.33;;;1.33;;
12703;SDS011;6416;52.182;7.650;2023-03-25T12:32:30;4.20;;;1.63;;
12703;SDS011;6416;52.182;7.650;2023-03-25T12:38:34;1.47;;;0.90;;
12703;SDS011;6416;52.182;7.650;2023-03-25T12:43:37;3.60;;;1.10;;
12703;SDS011;6416;52.182;7.650;2023-03-25T12:46:20;1.67;;;0.97;;
12703;SDS011;6416;52.182;7.650;2023-03-25T12:49:06;2.03;;;1.33;;
12703;SDS011;6416;52.182;7.650;2023-03-25T12:52:03;2.73;;;1.30;;
12703;SDS011;6416;52.182;7.650;2023-03-25T13:00:21;2.22;;;1.20;;
12703;SDS011;6416;52.182;7.650;2023-03-25T13:10:55;4.60;;;1.70;;
12703;SDS011;6416;52.182;7.650;2023-03-25T13:13:26;3.95;;;1.30;;
12703;SDS011;6416;52.182;7.650;2023-03-25T13:16:03;3.20;;;1.50;;
12703;SDS011;6416;52.182;7.650;2023-03-25T13:18:38;4.95;;;1.60;;
12703;SDS011;6416;52.182;7.650;2023-03-25T13:21:12;4.28;;;1.70;;
12703;SDS011;6416;52.182;7.650;2023-03-25T13:23:47;5.53;;;2.00;;
12703;SDS011;6416;52.182;7.650;2023-03-25T13:26:20;3.57;;;1.50;;
12703;SDS011;6416;52.182;7.650;2023-03-25T13:28:56;3.97;;;1.23;;
12703;SDS011;6416;52.182;7.650;2023-03-25T13:31:26;3.77;;;1.47;;
12703;SDS011;6416;52.182;7.650;2023-03-25T13:34:41;2.00;;;1.07;;
12703;SDS011;6416;52.182;7.650;2023-03-25T13:37:01;3.43;;;1.30;;
12703;SDS011;6416;52.182;7.650;2023-03-25T13:40:12;3.13;;;1.83;;
12703;SDS011;6416;52.182;7.650;2023-03-25T13:42:47;2.80;;;1.40;;
12703;SDS011;6416;52.182;7.650;2023-03-25T13:45:24;3.47;;;1.53;;
12703;SDS011;6416;52.182;7.650;2023-03-25T13:50:33;3.83;;;1.70;;
12703;SDS011;6416;52.182;7.650;2023-03-25T13:53:01;4.15;;;1.67;;
12703;SDS011;6416;52.182;7.650;2023-03-25T13:55:56;5.00;;;1.60;;
12703;SDS011;6416;52.182;7.650;2023-03-25T14:12:19;3.77;;;1.80;;
12703;SDS011;6416;52.182;7.650;2023-03-25T14:14:52;3.17;;;1.27;;
12703;SDS011;6416;52.182;7.650;2023-03-25T14:17:21;3.83;;;1.10;;
12703;SDS011;6416;52.182;7.650;2023-03-25T14:19:48;1.53;;;0.80;;
12703;SDS011;6416;52.182;7.650;2023-03-25T14:22:17;3.13;;;1.17;;
12703;SDS011;6416;52.182;7.650;2023-03-25T14:24:47;2.37;;;1.10;;
12703;SDS011;6416;52.182;7.650;2023-03-25T14:27:15;3.17;;;1.17;;
12703;SDS011;6416;52.182;7.650;2023-03-25T14:29:51;3.63;;;1.17;;
12703;SDS011;6416;52.182;7.650;2023-03-25T14:34:43;1.97;;;1.10;;
12703;SDS011;6416;52.182;7.650;2023-03-25T14:37:14;2.47;;;1.00;;
12703;SDS011;6416;52.182;7.650;2023-03-25T14:39:48;3.50;;;1.10;;
12703;SDS011;6416;52.182;7.650;2023-03-25T14:44:51;3.07;;;1.30;;
12703;SDS011;6416;52.182;7.650;2023-03-25T14:47:27;2.40;;;1.23;;
12703;SDS011;6416;52.182;7.650;2023-03-25T14:50:01;3.30;;;1.40;;
12703;SDS011;6416;52.182;7.650;2023-03-25T14:55:16;2.73;;;1.33;;
12703;SDS011;6416;52.182;7.650;2023-03-25T14:58:05;4.03;;;1.60;;
12703;SDS011;6416;52.182;7.650;2023-03-25T15:00:41;4.13;;;1.40;;
12703;SDS011;6416;52.182;7.650;2023-03-25T15:03:13;4.20;;;1.40;;
12703;SDS011;6416;52.182;7.650;2023-03-25T15:05:41;2.37;;;1.23;;
12703;SDS011;6416;52.182;7.650;2023-03-25T15:08:14;3.30;;;1.70;;
12703;SDS011;6416;52.182;7.650;2023-03-25T15:10:41;4.07;;;1.40;;
12703;SDS011;6416;52.182;7.650;2023-03-25T15:13:10;3.37;;;1.53;;
12703;SDS011;6416;52.182;7.650;2023-03-25T15:18:10;3.10;;;1.30;;
12703;SDS011;6416;52.182;7.650;2023-03-25T15:21:01;3.53;;;1.50;;
12703;SDS011;6416;52.182;7.650;2023-03-25T15:26:09;4.40;;;1.63;;
12703;SDS011;6416;52.182;7.650;2023-03-25T15:34:33;4.93;;;1.90;;
12703;SDS011;6416;52.182;7.650;2023-03-25T15:37:43;2.67;;;1.40;;
12703;SDS011;6416;52.182;7.650;2023-03-25T15:40:20;2.93;;;1.30;;
12703;SDS011;6416;52.182;7.650;2023-03-25T15:57:00;3.70;;;1.47;;
12703;SDS011;6416;52.182;7.650;2023-03-25T15:59:39;3.37;;;1.57;;
12703;SDS011;6416;52.182;7.650;2023-03-25T16:02:29;4.87;;;1.60;;
12703;SDS011;6416;52.182;7.650;2023-03-25T16:05:02;4.43;;;1.70;;
12703;SDS011;6416;52.182;7.650;2023-03-25T16:07:28;3.43;;;1.30;;
12703;SDS011;6416;52.182;7.650;2023-03-25T16:09:55;2.40;;;1.23;;
12703;SDS011;6416;52.182;7.650;2023-03-25T16:12:27;1.07;;;0.90;;
12703;SDS011;6416;52.182;7.650;2023-03-25T16:14:53;1.00;;;0.80;;
12703;SDS011;6416;52.182;7.650;2023-03-25T16:17:20;0.63;;;0.60;;
12703;SDS011;6416;52.182;7.650;2023-03-25T16:19:53;0.60;;;0.60;;
12703;SDS011;6416;52.182;7.650;2023-03-25T16:22:27;1.80;;;0.70;;
12703;SDS011;6416;52.182;7.650;2023-03-25T16:24:55;1.77;;;0.67;;
12703;SDS011;6416;52.182;7.650;2023-03-25T16:27:29;1.93;;;0.87;;
12703;SDS011;6416;52.182;7.650;2023-03-25T16:29:58;1.00;;;0.90;;
12703;SDS011;6416;52.182;7.650;2023-03-25T16:32:24;1.90;;;1.10;;
12703;SDS011;6416;52.182;7.650;2023-03-25T16:34:56;1.60;;;1.20;;
12703;SDS011;6416;52.182;7.650;2023-03-25T16:37:22;3.43;;;1.10;;
12703;SDS011;6416;52.182;7.650;2023-03-25T16:39:51;1.97;;;1.30;;
12703;SDS011;6416;52.182;7.650;2023-03-25T16:42:24;2.10;;;1.07;;
12703;SDS011;6416;52.182;7.650;2023-03-25T16:44:51;1.20;;;0.90;;
12703;SDS011;6416;52.182;7.650;2023-03-25T16:47:17;3.90;;;2.33;;
12703;SDS011;6416;52.182;7.650;2023-03-25T16:49:45;5.13;;;2.77;;
12703;SDS011;6416;52.182;7.650;2023-03-25T16:52:13;6.63;;;4.17;;
12703;SDS011;6416;52.182;7.650;2023-03-25T16:54:45;6.27;;;1.77;;
12703;SDS011;6416;52.182;7.650;2023-03-25T16:57:34;9.27;;;6.63;;
12703;SDS011;6416;52.182;7.650;2023-03-25T17:00:12;11.13;;;6.73;;
12703;SDS011;6416;52.182;7.650;2023-03-25T17:02:40;4.80;;;2.80;;
12703;SDS011;6416;52.182;7.650;2023-03-25T17:07:39;3.93;;;1.80;;
12703;SDS011;6416;52.182;7.650;2023-03-25T17:10:11;2.97;;;1.57;;
12703;SDS011;6416;52.182;7.650;2023-03-25T17:12:52;1.47;;;1.07;;
12703;SDS011;6416;52.182;7.650;2023-03-25T17:15:20;2.83;;;1.20;;
12703;SDS011;6416;52.182;7.650;2023-03-25T17:17:47;2.60;;;1.20;;
12703;SDS011;6416;52.182;7.650;2023-03-25T17:20:16;1.80;;;1.00;;
12703;SDS011;6416;52.182;7.650;2023-03-25T17:23:01;0.70;;;0.70;;
12703;SDS011;6416;52.182;7.650;2023-03-25T17:25:36;1.83;;;1.00;;
12703;SDS011;6416;52.182;7.650;2023-03-25T17:31:31;1.47;;;1.13;;
12703;SDS011;6416;52.182;7.650;2023-03-25T17:36:30;2.27;;;1.50;;
12703;SDS011;6416;52.182;7.650;2023-03-25T17:38:58;1.00;;;0.90;;